createdAt,value
2023-03-16T00:04:52.288Z,83.36
2023-03-16T00:10:24.296Z,83.44
2023-03-16T00:15:56.666Z,83.93
2023-03-16T00:21:28.915Z,83.55
2023-03-16T00:27:01.082Z,83.68
2023-03-16T00:32:33.285Z,83.75
2023-03-16T00:38:05.600Z,83.57
2023-03-16T00:43:37.683Z,83.48
2023-03-16T00:49:10.074Z,83.91
2023-03-16T00:54:42.471Z,83.76
2023-03-16T01:00:14.813Z,84.07
2023-03-16T01:05:47.000Z,84.86
2023-03-16T01:11:19.213Z,85.57
2023-03-16T01:16:51.534Z,88.03
2023-03-16T01:22:23.943Z,88.27
2023-03-16T01:27:55.960Z,88.35
2023-03-16T01:33:28.212Z,88.83
2023-03-16T01:39:00.508Z,89.83
2023-03-16T01:44:32.996Z,91.36
2023-03-16T01:50:05.086Z,90.98
2023-03-16T01:55:37.369Z,89.94
2023-03-16T02:01:09.669Z,89.74
2023-03-16T02:06:41.849Z,89.37
2023-03-16T02:12:13.865Z,90.42
2023-03-16T02:17:45.608Z,91.34
2023-03-16T02:23:18.132Z,91.88
2023-03-16T02:25:30.264Z,91.88
2023-03-16T02:31:01.587Z,92.68
2023-03-16T02:36:33.346Z,92.38
2023-03-16T02:42:05.308Z,91.91
2023-03-16T02:47:37.413Z,91.26
2023-03-16T02:53:09.867Z,91.50
2023-03-16T02:58:41.965Z,91.00
2023-03-16T03:04:13.502Z,90.34
2023-03-16T03:09:45.651Z,85.77
2023-03-16T03:15:18.006Z,87.89
2023-03-16T03:20:49.865Z,86.16
2023-03-16T03:26:21.588Z,88.18
2023-03-16T03:31:53.447Z,86.38
2023-03-16T03:37:25.748Z,87.16
2023-03-16T03:42:57.971Z,86.33
2023-03-16T03:48:30.251Z,86.68
2023-03-16T03:54:02.359Z,87.23
2023-03-16T03:59:34.397Z,85.66
2023-03-16T04:05:06.749Z,86.15
2023-03-16T04:10:38.891Z,86.14
2023-03-16T04:16:11.515Z,86.15
2023-03-16T04:21:43.462Z,86.92
2023-03-16T04:27:15.226Z,87.66
2023-03-16T04:32:47.573Z,88.13
2023-03-16T04:38:19.852Z,87.14
2023-03-16T04:43:52.138Z,87.47
2023-03-16T04:49:24.707Z,87.76
2023-03-16T04:54:56.690Z,88.23
2023-03-16T05:00:29.098Z,89.97
2023-03-16T05:06:01.349Z,89.29
2023-03-16T05:11:32.975Z,88.23
2023-03-16T05:17:05.294Z,87.71
2023-03-16T05:22:37.424Z,88.50
2023-03-16T05:28:09.093Z,87.59
2023-03-16T05:33:41.140Z,87.82
2023-03-16T05:39:13.327Z,88.43
2023-03-16T05:44:45.687Z,88.48
2023-03-16T05:50:17.794Z,87.96
2023-03-16T05:55:49.661Z,88.57
2023-03-16T06:01:21.862Z,88.47
2023-03-16T06:06:54.328Z,87.84
2023-03-16T06:12:26.358Z,87.39
2023-03-16T06:18:04.078Z,87.26
2023-03-16T06:23:35.818Z,86.30
2023-03-16T06:29:07.648Z,83.73
2023-03-16T06:34:40.257Z,82.68
2023-03-16T06:40:12.209Z,79.77
2023-03-16T06:45:44.135Z,78.70
2023-03-16T06:51:17.606Z,75.60
2023-03-16T06:56:49.861Z,73.68
2023-03-16T07:02:22.167Z,74.29
2023-03-16T07:07:54.218Z,68.10
2023-03-16T07:13:26.174Z,70.34
2023-03-16T07:18:58.223Z,68.09
2023-03-16T07:24:30.225Z,68.90
2023-03-16T07:30:02.242Z,66.21
2023-03-16T07:35:34.239Z,64.16
2023-03-16T07:41:06.066Z,63.47
2023-03-16T07:46:37.680Z,63.80
2023-03-16T07:52:09.817Z,63.74
2023-03-16T07:57:41.620Z,61.82
2023-03-16T08:03:13.375Z,62.47
2023-03-16T08:08:45.087Z,62.02
2023-03-16T08:14:16.826Z,61.56
2023-03-16T08:19:48.458Z,62.31
2023-03-16T08:25:20.817Z,61.84
2023-03-16T08:30:53.093Z,60.58
2023-03-16T08:36:24.929Z,60.75
2023-03-16T08:41:56.901Z,60.96
2023-03-16T08:47:29.164Z,62.25
2023-03-16T08:53:01.456Z,64.66
2023-03-16T08:58:33.951Z,66.66
2023-03-16T09:04:06.268Z,63.80
2023-03-16T09:09:38.046Z,62.83
2023-03-16T09:15:09.861Z,62.71
2023-03-16T09:20:41.636Z,69.14
2023-03-16T09:26:13.800Z,64.13
2023-03-16T09:31:45.918Z,62.98
2023-03-16T09:37:17.653Z,64.90
2023-03-16T09:43:12.856Z,62.87
2023-03-16T09:48:44.759Z,64.05
2023-03-16T09:54:16.542Z,63.86
2023-03-16T09:59:48.122Z,65.29
2023-03-16T10:05:20.150Z,65.73
2023-03-16T10:10:51.905Z,66.53
2023-03-16T10:16:23.881Z,66.06
2023-03-16T10:21:55.908Z,65.43
2023-03-16T10:27:27.742Z,65.51
2023-03-16T10:32:59.617Z,65.41
2023-03-16T10:38:31.915Z,67.72
2023-03-16T10:44:04.246Z,65.72
2023-03-16T10:49:36.357Z,66.04
2023-03-16T10:55:08.350Z,64.40
2023-03-16T11:00:40.326Z,65.15
2023-03-16T11:06:12.074Z,66.01
2023-03-16T11:11:44.110Z,65.69
2023-03-16T11:17:21.921Z,63.66
2023-03-16T11:22:53.610Z,65.41
2023-03-16T11:25:17.828Z,66.14
2023-03-16T11:30:49.567Z,63.43
2023-03-16T11:36:21.566Z,64.52
2023-03-16T11:41:53.844Z,65.18
2023-03-16T11:47:25.776Z,66.10
2023-03-16T11:52:57.376Z,67.52
2023-03-16T11:58:29.357Z,65.39
2023-03-16T12:06:22.866Z,67.81
2023-03-16T12:11:46.877Z,65.83
2023-03-16T12:17:18.805Z,64.69
2023-03-16T12:22:50.711Z,64.81
2023-03-16T12:28:22.502Z,62.96
2023-03-16T12:33:54.272Z,63.85
2023-03-16T12:39:25.928Z,64.38
2023-03-16T12:44:57.854Z,62.38
2023-03-16T12:50:29.758Z,61.91
2023-03-16T12:56:01.521Z,61.03
2023-03-16T13:01:33.432Z,62.73
2023-03-16T13:07:05.599Z,61.42
2023-03-16T13:12:37.261Z,61.79
2023-03-16T13:18:09.347Z,60.59
2023-03-16T13:23:41.299Z,59.62
2023-03-16T13:29:13.092Z,59.70
2023-03-16T13:34:45.136Z,60.15
2023-03-16T13:40:17.067Z,59.43
2023-03-16T13:45:48.793Z,59.28
2023-03-16T13:51:21.190Z,57.91
2023-03-16T13:56:53.039Z,57.10
2023-03-16T14:02:24.776Z,58.38
2023-03-16T14:07:56.516Z,59.01
2023-03-16T14:13:28.291Z,60.45
2023-03-16T14:18:59.898Z,60.68
2023-03-16T14:24:31.262Z,57.26
2023-03-16T14:30:03.098Z,58.53
2023-03-16T14:35:34.704Z,58.45
2023-03-16T14:41:06.341Z,57.44
2023-03-16T14:46:38.283Z,55.66
2023-03-16T14:52:10.265Z,55.64
2023-03-16T14:57:42.002Z,56.21
2023-03-16T15:03:13.845Z,57.19
2023-03-16T15:08:45.668Z,54.94
2023-03-16T15:14:17.302Z,55.30
2023-03-16T15:19:49.260Z,53.30
2023-03-16T15:25:21.150Z,53.71
2023-03-16T15:30:53.085Z,56.15
2023-03-16T15:36:24.638Z,55.47
2023-03-16T15:41:56.389Z,54.26
2023-03-16T15:47:28.416Z,55.44
2023-03-16T15:53:00.752Z,55.53
2023-03-16T15:58:32.774Z,53.95
2023-03-16T16:04:04.890Z,53.70
2023-03-16T16:09:36.611Z,55.15
2023-03-16T16:15:08.392Z,55.78
2023-03-16T16:20:40.163Z,54.39
2023-03-16T16:26:12.183Z,53.93
2023-03-16T16:31:43.641Z,54.31
2023-03-16T16:37:15.556Z,54.90
2023-03-16T16:42:47.347Z,55.61
2023-03-16T16:48:19.283Z,57.05
2023-03-16T16:53:51.120Z,56.66
2023-03-16T16:59:22.721Z,56.18
2023-03-16T17:04:54.671Z,56.75
2023-03-16T17:10:26.407Z,58.21
2023-03-16T17:15:58.192Z,57.94
2023-03-16T17:21:30.495Z,59.18
2023-03-16T17:27:02.820Z,58.29
2023-03-16T17:32:34.872Z,59.28
2023-03-16T17:38:06.728Z,59.31
2023-03-16T17:43:38.707Z,59.36
2023-03-16T17:49:10.831Z,59.81
2023-03-16T17:54:42.982Z,61.06
2023-03-16T18:00:14.710Z,60.85
2023-03-16T18:05:46.795Z,61.01
2023-03-16T18:11:18.914Z,61.75
2023-03-16T18:16:51.194Z,62.10
2023-03-16T18:22:22.920Z,62.35
2023-03-16T18:28:18.065Z,62.97
2023-03-16T18:33:50.133Z,62.76
2023-03-16T18:39:21.857Z,63.42
2023-03-16T18:44:54.268Z,63.66
2023-03-16T18:50:26.316Z,64.37
2023-03-16T18:55:58.161Z,65.10
2023-03-16T19:01:30.642Z,64.05
2023-03-16T19:07:03.181Z,65.15
2023-03-16T19:12:34.890Z,65.76
2023-03-16T19:18:07.023Z,65.01
2023-03-16T19:23:39.365Z,65.39
2023-03-16T19:29:11.415Z,65.42
2023-03-16T19:34:43.579Z,65.73
2023-03-16T19:40:15.406Z,65.90
2023-03-16T19:45:47.234Z,65.99
2023-03-16T19:51:19.484Z,66.96
2023-03-16T19:56:51.499Z,66.23
2023-03-16T20:02:23.567Z,66.75
2023-03-16T20:07:55.361Z,66.11
2023-03-16T20:13:26.644Z,67.77
2023-03-16T20:18:58.702Z,67.86
2023-03-16T20:24:29.851Z,68.27
2023-03-16T20:30:01.632Z,68.50
2023-03-16T20:35:33.314Z,68.56
2023-03-16T20:41:05.228Z,69.88
2023-03-16T20:46:36.797Z,68.94
2023-03-16T20:52:08.909Z,69.45
2023-03-16T20:57:41.083Z,70.41
2023-03-16T21:03:12.367Z,69.89
2023-03-16T21:08:43.805Z,71.24
2023-03-16T21:14:15.588Z,72.26
2023-03-16T21:19:47.186Z,72.61
2023-03-16T21:25:19.067Z,73.29
2023-03-16T21:30:50.975Z,72.32
2023-03-16T21:36:23.430Z,71.53
2023-03-16T21:41:54.894Z,71.79
2023-03-16T21:47:26.948Z,72.40
2023-03-16T21:52:58.780Z,72.00
2023-03-16T21:58:30.579Z,72.05
2023-03-16T22:04:02.088Z,74.57
2023-03-16T22:09:34.226Z,74.21
2023-03-16T22:15:06.241Z,75.35
2023-03-16T22:20:38.321Z,75.41
2023-03-16T22:26:10.347Z,76.20
2023-03-16T22:31:42.033Z,73.52
2023-03-16T22:37:13.828Z,74.79
2023-03-16T22:42:45.786Z,76.61
2023-03-16T22:48:17.567Z,75.84
2023-03-16T22:53:49.162Z,74.55
2023-03-16T22:59:20.982Z,73.52
2023-03-16T23:04:52.829Z,76.17
2023-03-16T23:10:24.823Z,74.71
2023-03-16T23:15:56.354Z,75.66
2023-03-16T23:21:28.151Z,75.82
2023-03-16T23:26:59.754Z,75.87
2023-03-16T23:32:31.798Z,75.84
2023-03-16T23:38:03.734Z,77.81
2023-03-16T23:43:35.933Z,75.60
2023-03-16T23:49:07.402Z,75.53
2023-03-16T23:54:39.736Z,76.94
